createdAt,value
2022-11-14T00:06:39.961Z,36.50
2022-11-14T00:17:01.546Z,36.60
2022-11-14T00:27:23.202Z,34.43
2022-11-14T00:37:44.676Z,33.73
2022-11-14T00:48:06.295Z,41.50
2022-11-14T00:58:28.322Z,36.47
2022-11-14T01:08:51.142Z,35.03
2022-11-14T01:19:12.816Z,32.50
2022-11-14T01:29:34.282Z,41.13
2022-11-14T01:39:55.740Z,37.67
2022-11-14T01:50:17.425Z,37.00
2022-11-14T02:00:39.204Z,37.92
2022-11-14T02:11:00.683Z,35.08
2022-11-14T02:21:22.190Z,38.97
2022-11-14T02:31:43.663Z,35.40
2022-11-14T02:42:06.571Z,41.10
2022-11-14T02:52:28.057Z,36.67
2022-11-14T03:02:49.533Z,33.80
2022-11-14T03:13:11.024Z,35.73
2022-11-14T03:23:33.055Z,38.60
2022-11-14T03:33:54.547Z,34.63
2022-11-14T03:44:16.028Z,38.70
2022-11-14T03:54:38.191Z,38.83
2022-11-14T04:04:59.717Z,34.90
2022-11-14T04:15:21.249Z,36.47
2022-11-14T04:25:44.229Z,35.73
2022-11-14T04:36:05.983Z,37.92
2022-11-14T04:46:27.592Z,36.67
2022-11-14T04:56:49.330Z,35.20
2022-11-14T05:07:11.016Z,38.85
2022-11-14T05:17:32.571Z,38.42
2022-11-14T05:27:54.112Z,39.17
2022-11-14T05:38:15.567Z,36.20
2022-11-14T05:48:37.910Z,38.40
2022-11-14T05:58:59.379Z,43.60
2022-11-14T06:09:20.969Z,41.83
2022-11-14T06:19:42.434Z,40.47
2022-11-14T06:30:04.894Z,43.60
2022-11-14T06:40:26.364Z,47.20
2022-11-14T06:50:53.082Z,41.63
2022-11-14T07:01:15.740Z,45.67
2022-11-14T07:11:37.787Z,44.72
2022-11-14T07:32:20.659Z,43.97
2022-11-14T07:42:42.484Z,48.80
2022-11-14T07:53:03.999Z,49.08
2022-11-14T08:03:25.500Z,48.60
2022-11-14T08:13:46.970Z,46.43
2022-11-14T08:24:08.848Z,50.63
2022-11-14T08:34:30.469Z,48.67
2022-11-14T08:44:52.443Z,46.73
2022-11-14T08:55:14.340Z,50.70
2022-11-14T09:05:37.590Z,49.17
2022-11-14T09:15:59.167Z,47.13
2022-11-14T09:26:20.678Z,48.80
2022-11-14T09:36:42.337Z,49.83
2022-11-14T09:47:10.827Z,48.33
2022-11-14T09:57:32.373Z,51.15
2022-11-14T10:08:20.736Z,49.30
2022-11-14T10:19:10.592Z,53.58
2022-11-14T10:29:41.637Z,46.88
2022-11-14T10:40:25.307Z,45.28
2022-11-14T10:50:54.362Z,41.58
2022-11-14T11:01:39.560Z,43.85
2022-11-14T11:12:02.967Z,42.53
2022-11-14T11:22:38.506Z,38.83
2022-11-14T11:33:21.847Z,40.88
2022-11-14T11:43:47.246Z,42.05
2022-11-14T11:54:24.684Z,40.33
2022-11-14T12:04:46.440Z,45.15
2022-11-14T12:15:15.659Z,40.13
2022-11-14T12:26:07.908Z,38.42
2022-11-14T12:36:34.677Z,38.97
2022-11-14T12:47:08.295Z,37.22
2022-11-14T12:58:03.967Z,36.10
2022-11-14T13:08:43.008Z,41.03
2022-11-14T13:19:29.436Z,37.17
2022-11-14T13:29:51.200Z,35.67
2022-11-14T13:40:28.309Z,39.97
2022-11-14T13:50:55.980Z,41.70
2022-11-14T14:01:29.644Z,44.10
2022-11-14T14:12:28.460Z,38.42
2022-11-14T14:22:52.902Z,37.00
2022-11-14T14:33:15.564Z,38.75
2022-11-14T14:43:37.081Z,39.17
2022-11-14T14:53:58.555Z,40.80
2022-11-14T15:04:22.118Z,40.50
2022-11-14T15:14:44.023Z,39.28
2022-11-14T15:25:11.677Z,38.65
2022-11-14T15:35:38.613Z,41.47
2022-11-14T15:46:00.133Z,39.50
2022-11-14T15:56:21.622Z,46.93
2022-11-14T16:06:43.267Z,37.00
2022-11-14T16:17:04.794Z,40.13
2022-11-14T16:27:27.025Z,41.27
2022-11-14T16:37:49.513Z,40.53
2022-11-14T16:48:11.042Z,38.88
2022-11-14T16:58:32.499Z,39.97
2022-11-14T17:08:58.436Z,34.97
2022-11-14T17:19:19.931Z,44.30
2022-11-14T17:29:41.384Z,35.37
2022-11-14T17:40:03.599Z,37.23
2022-11-14T17:50:25.072Z,33.88
2022-11-14T18:00:46.531Z,33.67
2022-11-14T18:11:11.083Z,35.87
2022-11-14T18:21:32.687Z,32.90
2022-11-14T18:31:54.251Z,32.50
2022-11-14T18:42:15.943Z,36.07
2022-11-14T18:52:37.656Z,34.15
2022-11-14T19:03:03.450Z,31.83
2022-11-14T19:13:27.939Z,41.40
2022-11-14T19:23:50.531Z,33.85
2022-11-14T19:34:11.981Z,40.90
2022-11-14T19:44:33.496Z,26.93
2022-11-14T19:54:54.987Z,36.07
2022-11-14T20:05:16.448Z,37.47
2022-11-14T20:15:37.947Z,39.50
2022-11-14T20:25:59.519Z,33.10
2022-11-14T20:36:24.475Z,33.13
2022-11-14T20:46:46.010Z,36.75
2022-11-14T20:57:07.535Z,33.30
2022-11-14T21:07:29.190Z,34.20
2022-11-14T21:17:50.721Z,32.20
2022-11-14T21:28:12.188Z,34.20
2022-11-14T21:38:33.656Z,32.43
2022-11-14T21:48:56.292Z,30.50
2022-11-14T21:59:21.402Z,31.92
2022-11-14T22:09:45.529Z,30.40
2022-11-14T22:20:08.068Z,30.77
2022-11-14T22:30:29.531Z,30.23
2022-11-14T22:40:51.046Z,28.63
2022-11-14T22:51:13.931Z,32.23
2022-11-14T23:01:35.395Z,28.75
2022-11-14T23:11:56.864Z,30.27
2022-11-14T23:22:18.357Z,24.77
2022-11-14T23:32:40.348Z,24.83
2022-11-14T23:53:23.578Z,22.43
